BE889 / G-ECOD 7700 Squawk Report (14th of July, 2018)

Aircraft DH8D Reg No. G-ECOD Age N/A
Model DHC-8 Turboprop engines 2 First flight N/A
Registered 14-07-08 Rollout N/A Delivered 16-07-08
Construction No. 4206 Line No. N/A Series Q-402
ADSHEX 405B77 Airline name FlyBE Owner N/A
Airfield based Exeter~Devon~G First tracked 2017-07-13 06:30:00

Flight history for G-ECOD

Route Flight No Date Playback
Schiphol (AMS) - Manchester (MAN) BE1280 2018-08-17 20:24:00
Manchester (MAN) - Schiphol (AMS) BE1279 2018-08-17 18:05:00
Newquay Cornwall (NQY) - Manchester (MAN) BE356 2018-08-17 16:10:00
Manchester (MAN) - Newquay Cornwall (NQY) BE355 2018-08-17 15:31:00
Newquay Cornwall (NQY) - Manchester (MAN) BE354 2018-08-17 12:57:00
Manchester (MAN) - Newquay Cornwall (NQY) BE353 2018-08-17 11:12:00
Schiphol (AMS) - Manchester (MAN) BE1272 2018-08-17 09:43:00
Manchester (MAN) - Schiphol (AMS) BE1271 2018-08-17 07:21:00
Dyce (ABZ) - Manchester (MAN) BE1046 2018-08-16 20:31:00
Manchester (MAN) - Dyce (ABZ) BE1045 2018-08-16 19:01:00
Jersey (JER) - Manchester (MAN) BE454 2018-08-16 17:06:00
Manchester (MAN) - Jersey (JER) BE453 2018-08-16 15:19:00
Nantes Atlantique (NTE) - Manchester (MAN) BE3444 2018-08-16 13:09:00
Manchester (MAN) - Nantes Atlantique (NTE) BE3443 2018-08-16 12:08:00
Belfast City (BHD) - Manchester (MAN) BE473 2018-08-16 08:12:00
Manchester (MAN) - Belfast City (BHD) BE470 2018-08-16 06:45:00
Dyce (ABZ) - Manchester (MAN) BE1046 2018-08-15 20:21:00
Manchester (MAN) - Dyce (ABZ) BE1045 2018-08-15 18:33:00
Jersey (JER) - Manchester (MAN) BE454 2018-08-15 16:42:00
Manchester (MAN) - Jersey (JER) BE453 2018-08-15 14:52:00
Time Lat Lon Altitude Heading Speed Vertical Rate
2018-07-14 18:31:50 GMT 50.974888 -1.342926 325 200 120 -576
2018-07-14 18:31:33 GMT 50.981403 -1.338806 350 198 143 -576
2018-07-14 18:31:27 GMT 50.985313 -1.336823 450 198 143 -576
2018-07-14 18:31:16 GMT 50.991089 -1.333618 575 198 143 -576
2018-07-14 18:31:07 GMT 50.994812 -1.331329 650 198 143 -576
2018-07-14 18:30:59 GMT 50.999886 -1.327591 875 198 143 -576
2018-07-14 18:30:47 GMT 51.006214 -1.324234 875 199 159 -704
2018-07-14 18:30:39 GMT 51.008080 -1.323624 1,025 199 159 -704
2018-07-14 18:30:27 GMT 51.013805 -1.320038 1,150 198 167 -768
2018-07-14 18:30:16 GMT 51.022182 -1.315765 1,200 191 177 -1020
2018-07-14 18:29:12 GMT 51.062950 -1.294079 2,000 197 209 -1620
2018-07-14 18:29:01 GMT 51.071648 -1.291772 2,200 206 214 -1380
2018-07-14 18:28:51 GMT 51.080585 -1.284875 2,400 200 170 -780
2018-07-14 18:28:40 GMT 51.088840 -1.279381 2,575 203 217 -1260
2018-07-14 18:28:29 GMT 51.098167 -1.270226 2,850 228 222 -1140
2018-07-14 18:28:19 GMT 51.103802 -1.258587 3,025 253 280 -60
2018-07-14 18:28:08 GMT 51.105362 -1.239982 3,250 247 221 -360
2018-07-14 18:27:57 GMT 51.105419 -1.223091 3,350 301 136 -420
2018-07-14 18:27:46 GMT 51.099251 -1.207684 3,450 318 267 -1020
2018-07-14 18:27:36 GMT 51.091091 -1.198302 3,525 39 176 -1200
2018-07-14 18:27:26 GMT 51.080219 -1.189943 3,700 20 317 -900
2018-07-14 18:27:15 GMT 51.067764 -1.193117 3,950 350 547 -780
2018-07-14 18:27:04 GMT 51.056068 -1.199337 4,075 31 166 -780
2018-07-14 18:26:53 GMT 51.047352 -1.211528 4,300 41 246 -960
2018-07-14 18:26:43 GMT 51.040730 -1.225840 4,475 100 256 -900
2018-07-14 18:26:32 GMT 51.040047 -1.245576 4,625 89 235 -1200
2018-07-14 18:26:22 GMT 51.041508 -1.262454 4,850 108 278 -900
2018-07-14 18:26:12 GMT 51.045376 -1.280186 5,000 113 235 -720
2018-07-14 18:26:02 GMT 51.049229 -1.296202 5,175 111 204 -780
2018-07-14 18:25:52 GMT 51.053089 -1.313213 5,375 131 363 -1380
2018-07-14 18:25:40 GMT 51.060040 -1.331781 5,575 134 182 -540
2018-07-14 18:25:28 GMT 51.070461 -1.343876 5,775 119 313 -960
2018-07-14 18:25:18 GMT 51.080681 -1.349843 5,925 173 278 -600
2018-07-14 18:25:08 GMT 51.091576 -1.352525 6,050 184 297 -1020
2018-07-14 18:24:57 GMT 51.104454 -1.351132 6,250 161 94 -1920
2018-07-14 18:24:47 GMT 51.116032 -1.352000 6,425 158 185 -540
2018-07-14 18:24:36 GMT 51.127811 -1.352964 6,700 192 244 -180
2018-07-14 18:24:25 GMT 51.139149 -1.351150 6,950 165 431 0
2018-07-14 18:24:14 GMT 51.152969 -1.350861 7,000 153 295 0
2018-07-14 18:24:03 GMT 51.166599 -1.353040 7,000 202 191 0
2018-07-14 18:23:52 GMT 51.178917 -1.353631 7,000 194 246 -120
2018-07-14 18:23:42 GMT 51.189548 -1.351001 7,000 181 310 -60
2018-07-14 18:23:31 GMT 51.202919 -1.352992 7,000 185 312 -60
2018-07-14 18:23:21 GMT 51.214283 -1.352740 7,025 166 325 -60
2018-07-14 18:23:11 GMT 51.225697 -1.354298 7,075 155 335 -180
2018-07-14 18:23:01 GMT 51.237621 -1.354931 7,075 202 265 -900
2018-07-14 18:22:50 GMT 51.250290 -1.354961 7,175 167 283 -900
2018-07-14 18:22:39 GMT 51.263988 -1.356040 7,350 192 245 -900
2018-07-14 18:22:28 GMT 51.276577 -1.356723 7,550 181 242 -840
2018-07-14 18:22:18 GMT 51.286991 -1.353619 7,675 171 286 -900
2018-07-14 18:22:07 GMT 51.301109 -1.356856 7,900 199 257 -780
2018-07-14 18:21:56 GMT 51.313034 -1.353407 8,075 168 280 -960
2018-07-14 18:21:46 GMT 51.326584 -1.357214 8,225 179 251 -960
2018-07-14 18:21:36 GMT 51.337681 -1.357648 8,400 178 276 -960
2018-07-14 18:21:26 GMT 51.350010 -1.357867 8,600 178 274 -1200
2018-07-14 18:21:16 GMT 51.363255 -1.357198 8,750 176 248 -960
2018-07-14 18:21:06 GMT 51.372761 -1.357370 8,900 176 328 -720
2018-07-14 18:20:56 GMT 51.387314 -1.358169 9,050 176 264 -1560
2018-07-14 18:20:45 GMT 51.401058 -1.360454 9,275 182 285 -720
2018-07-14 18:20:35 GMT 51.414276 -1.359507 9,450 178 242 -2040
2018-07-14 18:20:24 GMT 51.426151 -1.361443 9,600 179 297 -1680
2018-07-14 18:20:13 GMT 51.442566 -1.363259 9,775 175 278 -480
2018-07-14 18:20:03 GMT 51.454170 -1.361786 9,950 171 285 -960
2018-07-14 18:19:53 GMT 51.467079 -1.361805 10,125 177 269 -780
2018-07-14 18:19:42 GMT 51.479786 -1.363235 10,375 183 309 -360
2018-07-14 18:19:31 GMT 51.495518 -1.361699 10,450 178 270 -600
2018-07-14 18:19:21 GMT 51.508049 -1.362163 10,525 181 281 -300
2018-07-14 18:19:10 GMT 51.523106 -1.362305 10,625 178 286 -600
2018-07-14 18:19:00 GMT 51.536240 -1.362235 10,725 182 289 -480
2018-07-14 18:18:50 GMT 51.550186 -1.360968 10,825 171 281 -480
2018-07-14 18:18:40 GMT 51.563740 -1.361198 10,900 171 289 -180
2018-07-14 18:18:30 GMT 51.576847 -1.361646 10,975 179 308 0
2018-07-14 18:18:18 GMT 51.592422 -1.363256 11,000 184 309 0
2018-07-14 18:18:08 GMT 51.608185 -1.365015 11,000 191 267 0
2018-07-14 18:17:57 GMT 51.622673 -1.360957 11,000 180 303 0
2018-07-14 18:17:46 GMT 51.637375 -1.361691 11,000 180 288 0
2018-07-14 18:17:36 GMT 51.649967 -1.359894 11,000 178 306 0
2018-07-14 18:17:26 GMT 51.664940 -1.361124 11,000 179 295 60
2018-07-14 18:17:15 GMT 51.678799 -1.360508 11,000 179 313 0
2018-07-14 18:17:04 GMT 51.694740 -1.360942 11,000 165 322 -60
2018-07-14 18:16:53 GMT 51.709049 -1.365393 10,975 155 286 0
2018-07-14 18:16:42 GMT 51.723171 -1.376211 11,000 161 285 0
2018-07-14 18:16:30 GMT 51.738560 -1.384485 11,000 158 310 0
2018-07-14 18:16:20 GMT 51.750751 -1.393619 11,000 164 325 0
2018-07-14 18:16:10 GMT 51.765072 -1.400526 11,000 157 274 0
2018-07-14 18:16:00 GMT 51.777843 -1.408441 11,000 157 291 0
2018-07-14 18:15:50 GMT 51.790272 -1.416905 11,000 158 283 0
2018-07-14 18:15:39 GMT 51.804913 -1.424989 11,000 160 298 0
2018-07-14 18:15:29 GMT 51.817917 -1.432663 11,000 159 288 0
2018-07-14 18:15:18 GMT 51.832844 -1.441810 11,000 157 299 0
2018-07-14 18:15:08 GMT 51.845684 -1.450305 11,000 162 271 0
2018-07-14 18:14:57 GMT 51.859871 -1.457939 11,000 161 297 0
2018-07-14 18:14:46 GMT 51.874229 -1.465844 11,000 159 278 0
2018-07-14 18:14:35 GMT 51.887474 -1.474151 11,000 153 302 0
2018-07-14 18:14:25 GMT 51.900192 -1.482218 11,000 155 325 -60
2018-07-14 18:14:14 GMT 51.913952 -1.490567 11,000 157 304 0
2018-07-14 18:14:04 GMT 51.926010 -1.499146 11,025 162 269 0
2018-07-14 18:13:54 GMT 51.937920 -1.505252 11,025 159 293 60
2018-07-14 18:13:44 GMT 51.950611 -1.513014 11,025 154 257 120
2018-07-14 18:13:34 GMT 51.961300 -1.520561 11,025 157 287 0
2018-07-14 18:13:24 GMT 51.973106 -1.527683 11,000 159 250 -60
2018-07-14 18:13:13 GMT 51.986607 -1.536392 11,025 156 262 60
2018-07-14 18:13:03 GMT 51.997776 -1.544220 11,000 155 242 -60
2018-07-14 18:12:52 GMT 52.009480 -1.552159 11,000 157 269 60
2018-07-14 18:12:42 GMT 52.021046 -1.559777 11,000 154 276 -60
2018-07-14 18:12:31 GMT 52.033726 -1.569618 11,000 161 254 -60
2018-07-14 18:12:20 GMT 52.046806 -1.576695 11,025 155 262 -300
2018-07-14 18:12:08 GMT 52.057728 -1.589096 11,050 170 339 -1500
2018-07-14 18:11:58 GMT 52.071854 -1.594479 11,100 159 304 -3000
2018-07-14 18:11:47 GMT 52.086674 -1.603435 11,300 158 286 -2400
2018-07-14 18:11:37 GMT 52.098969 -1.611409 11,650 151 259 -2700
2018-07-14 18:11:27 GMT 52.110748 -1.619097 12,050 159 334 -2100
2018-07-14 18:11:17 GMT 52.123348 -1.627051 12,225 162 315 -1620
2018-07-14 18:11:07 GMT 52.137245 -1.636335 12,600 158 305 -2880
2018-07-14 18:10:56 GMT 52.151386 -1.644650 12,875 158 299 -540
2018-07-14 18:10:45 GMT 52.164989 -1.654856 13,200 162 319 -1200
2018-07-14 18:10:34 GMT 52.179878 -1.662693 13,650 160 325 -1920
2018-07-14 18:10:24 GMT 52.194122 -1.670740 13,975 155 313 -1620
2018-07-14 18:10:14 GMT 52.208626 -1.680506 14,250 156 303 -1740
2018-07-14 18:10:04 GMT 52.221466 -1.689713 14,600 160 297 -1980
2018-07-14 18:09:54 GMT 52.234451 -1.697084 14,950 160 303 -1920
2018-07-14 18:09:43 GMT 52.249294 -1.705656 15,425 159 327 -1380
2018-07-14 18:09:30 GMT 52.268032 -1.716301 15,700 156 334 -2100
2018-07-14 18:09:20 GMT 52.282181 -1.725957 16,050 158 302 -3000
2018-07-14 18:09:09 GMT 52.297535 -1.735418 16,500 159 342 -660
2018-07-14 18:08:58 GMT 52.313393 -1.745373 16,900 160 339 -1680
2018-07-14 18:08:48 GMT 52.328224 -1.753902 17,175 160 332 -1500
2018-07-14 18:08:37 GMT 52.343601 -1.764619 17,550 159 329 -1680
2018-07-14 18:08:27 GMT 52.357903 -1.773192 17,900 163 353 -2040
2018-07-14 18:08:17 GMT 52.374561 -1.781305 18,200 160 328 -780
2018-07-14 18:08:07 GMT 52.388885 -1.789546 18,550 161 369 -1140
2018-07-14 18:07:56 GMT 52.406410 -1.799710 18,900 162 359 -240
2018-07-14 18:07:46 GMT 52.421829 -1.808279 19,000 162 317 -120
2018-07-14 18:07:36 GMT 52.436977 -1.816836 19,000 161 376 0
2018-07-14 18:07:25 GMT 52.454342 -1.826378 19,000 160 375 0
2018-07-14 18:07:14 GMT 52.472069 -1.836893 19,000 157 349 0
2018-07-14 18:07:04 GMT 52.486618 -1.846458 19,000 161 340 0
2018-07-14 18:06:53 GMT 52.503658 -1.855561 19,000 159 315 0
2018-07-14 18:06:43 GMT 52.517998 -1.863721 19,000 158 351 0
2018-07-14 18:06:33 GMT 52.533192 -1.871883 19,000 158 371 0
2018-07-14 18:06:22 GMT 52.548870 -1.882900 19,000 161 352 0
2018-07-14 18:06:11 GMT 52.565838 -1.891679 19,000 160 364 0
2018-07-14 18:06:00 GMT 52.582085 -1.901041 19,000 153 329 0
2018-07-14 18:05:49 GMT 52.599041 -1.908519 19,000 167 338 0
2018-07-14 18:05:39 GMT 52.611313 -1.924669 19,000 195 396 -60
2018-07-14 18:05:27 GMT 52.632298 -1.920394 18,975 168 319 0
2018-07-14 18:05:17 GMT 52.646374 -1.925273 19,000 165 325 0
2018-07-14 18:05:06 GMT 52.664223 -1.931912 19,000 155 249 60
2018-07-14 18:04:55 GMT 52.677422 -1.934168 19,000 134 345 -79140
2018-07-14 18:04:45 GMT 52.689812 -1.950034 18,975 154 309 69600
2018-07-14 18:04:33 GMT 52.704212 -1.961875 18,925 156 304 840
2018-07-14 18:04:22 GMT 52.718456 -1.972044 18,775 158 280 2400
2018-07-14 18:04:11 GMT 52.731380 -1.982349 18,525 153 317 1500
2018-07-14 18:04:01 GMT 52.744015 -1.991165 18,350 153 294 1200
2018-07-14 18:03:51 GMT 52.756374 -2.000686 18,100 152 281 1200
2018-07-14 18:03:41 GMT 52.767975 -2.010522 17,875 157 303 1260
2018-07-14 18:03:30 GMT 52.780983 -2.020414 17,650 153 274 660
2018-07-14 18:03:20 GMT 52.792332 -2.029517 17,425 157 319 1260
2018-07-14 18:03:08 GMT 52.807281 -2.041303 17,175 153 314 1200
2018-07-14 18:02:58 GMT 52.820141 -2.051090 16,950 155 266 780
2018-07-14 18:02:48 GMT 52.832619 -2.060152 16,700 152 274 1140
2018-07-14 18:02:38 GMT 52.843899 -2.069762 16,525 159 281 1260
2018-07-14 18:02:28 GMT 52.856071 -2.078166 16,250 163 262 960
2018-07-14 18:02:18 GMT 52.867714 -2.083789 16,125 165 281 1080
2018-07-14 18:02:08 GMT 52.880341 -2.089155 15,875 162 283 1140
2018-07-14 18:01:58 GMT 52.892845 -2.095815 15,675 165 266 1500
2018-07-14 18:01:47 GMT 52.906544 -2.102655 15,400 166 270 1080
2018-07-14 18:01:37 GMT 52.917866 -2.108137 15,200 164 267 1140
2018-07-14 18:01:27 GMT 52.930176 -2.114149 14,875 165 277 1380
2018-07-14 18:01:15 GMT 52.945080 -2.120647 14,650 161 255 1860
2018-07-14 18:01:05 GMT 52.956261 -2.126836 14,375 163 286 1260
2018-07-14 18:00:54 GMT 52.969025 -2.133599 14,175 164 285 1500
2018-07-14 18:00:44 GMT 52.980904 -2.138847 13,875 163 272 1620
2018-07-14 18:00:34 GMT 52.992325 -2.144802 13,675 162 276 1020
2018-07-14 18:00:23 GMT 53.003757 -2.155630 13,425 179 282 2160
2018-07-14 18:00:12 GMT 53.017914 -2.157497 13,150 165 256 0
2018-07-14 18:00:02 GMT 53.029358 -2.162792 12,825 163 233 1860
2018-07-14 17:59:52 GMT 53.040840 -2.168015 12,550 164 254 1800
2018-07-14 17:59:41 GMT 53.052814 -2.174202 12,200 165 260 2040
2018-07-14 17:59:31 GMT 53.064072 -2.179558 11,850 163 232 1380
2018-07-14 17:59:21 GMT 53.074394 -2.184701 11,525 165 268 3420
2018-07-14 17:59:10 GMT 53.087082 -2.190689 11,125 163 258 2100
2018-07-14 17:59:00 GMT 53.097610 -2.195711 10,875 162 254 3000
2018-07-14 17:58:50 GMT 53.109478 -2.201109 10,325 163 249 -79560
2018-07-14 17:58:39 GMT 53.121029 -2.207051 10,100 163 253 72060
2018-07-14 17:58:29 GMT 53.132267 -2.212751 9,700 163 227 1560
2018-07-14 17:58:18 GMT 53.143360 -2.218180 9,275 165 245 1560
2018-07-14 17:58:07 GMT 53.155666 -2.223444 8,975 163 243 -74460
2018-07-14 17:57:55 GMT 53.167774 -2.229462 8,500 164 254 91980
2018-07-14 17:57:45 GMT 53.178619 -2.234269 8,125 164 241 91980
2018-07-14 17:57:35 GMT 53.189865 -2.239640 7,800 171 149 1920
2018-07-14 17:57:24 GMT 53.200958 -2.244090 7,425 146 152 3060
2018-07-14 17:57:14 GMT 53.210312 -2.248714 7,050 161 209 0
2018-07-14 17:57:03 GMT 53.221607 -2.254375 6,650 161 227 2580
2018-07-14 17:56:53 GMT 53.231136 -2.259745 6,200 154 261 1500
2018-07-14 17:56:42 GMT 53.241859 -2.267121 5,700 159 247 2160
2018-07-14 17:56:31 GMT 53.252853 -2.274300 5,225 154 199 1680
2018-07-14 17:56:21 GMT 53.262398 -2.281660 4,875 154 190 1728
2018-07-14 17:56:10 GMT 53.282715 -2.303898 4,425 169 164 1728
2018-07-14 17:56:04 GMT 53.289509 -2.311733 4,200 169 164 1728
2018-07-14 17:55:52 GMT 53.300915 -2.320377 3,750 192 152 1856
2018-07-14 17:55:42 GMT 53.307899 -2.322720 3,350 192 152 1856
We lost coverage of the aircraft here for a total of 118 minutes
2018-07-14 15:58:12 GMT 53.364182 -2.255832 125 234 133 -768
2018-07-14 15:57:52 GMT 53.372280 -2.237576 325 234 133 -768
2018-07-14 15:54:43 GMT 53.478420 -2.085625 2,475 142 270 -1680
2018-07-14 15:54:37 GMT 53.486984 -2.085625 2,575 142 270 -1680
2018-07-14 15:54:31 GMT 53.490383 -2.087079 2,700 142 270 -1680
2018-07-14 15:54:20 GMT 53.500996 -2.086837 2,900 142 270 -1680
2018-07-14 15:54:08 GMT 53.513985 -2.090714 2,925 142 270 -1680
2018-07-14 15:53:53 GMT 53.525902 -2.098631 2,975 142 270 -1680
2018-07-14 15:53:47 GMT 53.528416 -2.101216 3,075 142 270 -1680
2018-07-14 15:53:37 GMT 53.538799 -2.112283 3,375 142 270 -1680
2018-07-14 15:53:26 GMT 53.545502 -2.118099 3,700 142 270 -1680
2018-07-14 15:53:18 GMT 53.553509 -2.126824 4,025 142 270 -1680
2018-07-14 15:53:04 GMT 53.563797 -2.139991 4,175 142 270 -1680
2018-07-14 15:52:50 GMT 53.574596 -2.153078 4,425 142 270 -1680
2018-07-14 15:52:43 GMT 53.579205 -2.158571 4,550 142 270 -1680
2018-07-14 15:52:36 GMT 53.585724 -2.167215 4,675 142 270 -1680
2018-07-14 15:51:25 GMT 53.635891 -2.235007 5,725 144 277 -6180
2018-07-14 15:51:14 GMT 53.645676 -2.248191 6,150 145 246 -4140
2018-07-14 15:51:03 GMT 53.654743 -2.261938 6,475 129 253 -720
2018-07-14 15:50:53 GMT 53.661640 -2.275639 6,975 131 282 -1380
2018-07-14 15:50:41 GMT 53.670845 -2.293550 7,400 131 235 -1560
2018-07-14 15:50:30 GMT 53.678715 -2.308796 7,900 130 252 -1680
2018-07-14 15:50:18 GMT 53.687885 -2.326648 8,175 131 246 -1380
2018-07-14 15:50:08 GMT 53.695412 -2.341089 8,500 130 252 -2760
2018-07-14 15:49:56 GMT 53.705338 -2.361110 8,925 133 204 0
2018-07-14 15:49:45 GMT 53.713463 -2.376369 9,225 132 262 -1980
2018-07-14 15:49:35 GMT 53.721699 -2.391406 9,525 131 283 -840
2018-07-14 15:49:23 GMT 53.732136 -2.411348 9,825 133 265 -1020
2018-07-14 15:49:12 GMT 53.741032 -2.427065 10,150 132 305 -1500
2018-07-14 15:49:02 GMT 53.750534 -2.444713 10,400 132 258 -1380
2018-07-14 15:48:51 GMT 53.760174 -2.462632 10,875 132 291 -2100
2018-07-14 15:48:40 GMT 53.770248 -2.481095 10,975 131 297 -1500
2018-07-14 15:48:30 GMT 53.779354 -2.498520 11,475 134 286 -1680
2018-07-14 15:48:19 GMT 53.789864 -2.517077 11,975 133 270 -1860
2018-07-14 15:48:09 GMT 53.799065 -2.533311 12,325 131 308 -2460
2018-07-14 15:47:59 GMT 53.808510 -2.550833 12,750 132 273 -2400
2018-07-14 15:47:48 GMT 53.818588 -2.569558 13,200 130 311 -2040
2018-07-14 15:47:37 GMT 53.829288 -2.590191 13,750 133 290 -3840
2018-07-14 15:47:25 GMT 53.840351 -2.610043 14,025 132 292 -2040
2018-07-14 15:47:15 GMT 53.849274 -2.628248 14,550 133 308 -1920
2018-07-14 15:47:04 GMT 53.859001 -2.645779 14,975 133 302 -2340
2018-07-14 15:46:54 GMT 53.868683 -2.662947 15,350 132 295 -1140
2018-07-14 15:46:44 GMT 53.877983 -2.679900 15,825 131 293 -2160
2018-07-14 15:46:33 GMT 53.888470 -2.700296 16,175 134 281 -1260
2018-07-14 15:46:22 GMT 53.898621 -2.717527 16,550 134 305 -2400
2018-07-14 15:46:09 GMT 53.911549 -2.739654 16,925 134 314 -6180
2018-07-14 15:45:58 GMT 53.922356 -2.758497 17,325 134 294 -2280
2018-07-14 15:45:47 GMT 53.933327 -2.777792 17,600 134 320 1500
2018-07-14 15:45:37 GMT 53.943657 -2.795852 17,850 136 288 -1800
2018-07-14 15:45:26 GMT 53.954712 -2.814148 18,100 133 309 -1260
2018-07-14 15:45:15 GMT 53.965931 -2.832505 18,600 133 335 -1620
2018-07-14 15:45:05 GMT 53.976215 -2.850701 18,650 135 345 -1380
2018-07-14 15:44:54 GMT 53.988602 -2.870541 18,950 136 327 -960
2018-07-14 15:44:42 GMT 54.001690 -2.891545 19,225 133 356 -1860
2018-07-14 15:44:32 GMT 54.012928 -2.911234 19,525 135 322 0
2018-07-14 15:44:22 GMT 54.024380 -2.929055 19,800 136 312 -1020
2018-07-14 15:44:12 GMT 54.034840 -2.946070 20,025 149 365 -2040
2018-07-14 15:44:01 GMT 54.051140 -2.964059 20,275 163 338 -600
2018-07-14 15:43:51 GMT 54.066162 -2.971537 20,550 165 344 -1140
2018-07-14 15:43:39 GMT 54.084129 -2.979952 20,825 163 337 -3720
2018-07-14 15:43:29 GMT 54.099796 -2.986330 21,100 162 352 480
2018-07-14 15:43:19 GMT 54.115376 -2.994524 21,400 163 343 -1500
2018-07-14 15:43:08 GMT 54.130306 -3.002508 21,650 164 350 -2520
2018-07-14 15:42:57 GMT 54.148487 -3.011059 21,900 163 313 -2160
2018-07-14 15:42:46 GMT 54.165119 -3.019134 22,175 164 347 -2160
2018-07-14 15:42:33 GMT 54.185226 -3.028826 22,525 166 359 -1380
2018-07-14 15:42:22 GMT 54.202667 -3.036339 22,775 165 359 -6480
2018-07-14 15:42:12 GMT 54.218662 -3.043166 23,000 167 362 3600
2018-07-14 15:42:02 GMT 54.234901 -3.049525 23,275 165 352 -1260
2018-07-14 15:41:51 GMT 54.251728 -3.056752 23,525 166 349 -1260
2018-07-14 15:41:39 GMT 54.272011 -3.064858 23,850 166 331 -1800
2018-07-14 15:41:28 GMT 54.288822 -3.071778 24,175 163 340 -900
2018-07-14 15:41:17 GMT 54.305542 -3.080133 24,425 156 289 -1140
2018-07-14 15:41:06 GMT 54.320427 -3.092413 24,675 138 284 -420
2018-07-14 15:40:56 GMT 54.330257 -3.107451 24,900 126 330 0
2018-07-14 15:40:45 GMT 54.339783 -3.130386 25,000 109 301 0
2018-07-14 15:40:35 GMT 54.344078 -3.152635 25,000 98 285 0
2018-07-14 15:40:24 GMT 54.346130 -3.177341 25,000 96 286 0
2018-07-14 15:40:14 GMT 54.347778 -3.199201 25,000 97 280 0
2018-07-14 15:40:04 GMT 54.349567 -3.221238 25,000 99 295 0
2018-07-14 15:39:54 GMT 54.351810 -3.244360 25,000 99 274 120
2018-07-14 15:39:44 GMT 54.353668 -3.265011 25,000 100 268 60
2018-07-14 15:39:33 GMT 54.357277 -3.290425 24,975 110 283 -180
2018-07-14 15:39:23 GMT 54.361774 -3.311590 25,000 114 284 -60
2018-07-14 15:39:11 GMT 54.368622 -3.335443 25,000 128 320 60
2018-07-14 15:39:00 GMT 54.378483 -3.355204 25,000 142 333 180
2018-07-14 15:38:50 GMT 54.390324 -3.370333 24,975 157 330 -120
2018-07-14 15:38:39 GMT 54.405872 -3.381333 24,975 162 323 0
2018-07-14 15:38:26 GMT 54.425949 -3.391723 24,975 160 348 0
2018-07-14 15:38:14 GMT 54.444107 -3.402031 25,000 160 350 0
2018-07-14 15:38:04 GMT 54.458290 -3.410873 25,000 162 347 0
2018-07-14 15:37:52 GMT 54.476685 -3.420917 25,000 160 365 0
2018-07-14 15:37:42 GMT 54.492668 -3.430515 25,000 160 354 0
2018-07-14 15:37:32 GMT 54.507980 -3.439467 25,000 161 314 0
2018-07-14 15:37:20 GMT 54.526943 -3.450218 25,000 162 330 0
2018-07-14 15:37:09 GMT 54.542294 -3.458835 25,000 162 361 0
2018-07-14 15:36:59 GMT 54.558258 -3.467309 25,000 163 330 0
2018-07-14 15:36:49 GMT 54.572323 -3.474783 25,000 161 374 0
2018-07-14 15:36:39 GMT 54.587811 -3.483662 25,000 159 378 0
2018-07-14 15:36:29 GMT 54.602921 -3.493463 25,000 158 351 0
2018-07-14 15:36:19 GMT 54.618046 -3.503780 25,000 147 384 0
2018-07-14 15:36:08 GMT 54.632996 -3.517918 25,000 152 332 0
2018-07-14 15:35:57 GMT 54.647717 -3.531341 25,000 147 399 0
2018-07-14 15:35:47 GMT 54.661514 -3.543996 25,000 153 339 -60
2018-07-14 15:35:36 GMT 54.675858 -3.556718 25,000 151 315 120
2018-07-14 15:35:26 GMT 54.689571 -3.569927 25,000 152 322 0
2018-07-14 15:35:15 GMT 54.703716 -3.582542 25,000 151 332 0
2018-07-14 15:35:05 GMT 54.717175 -3.595447 25,000 152 317 0
2018-07-14 15:34:55 GMT 54.729359 -3.607267 25,000 151 330 0
2018-07-14 15:34:45 GMT 54.742847 -3.619726 25,000 148 297 0
2018-07-14 15:34:34 GMT 54.755230 -3.632126 25,000 150 341 60
2018-07-14 15:34:23 GMT 54.768921 -3.645721 25,000 149 318 0
2018-07-14 15:34:12 GMT 54.783539 -3.659698 24,975 151 304 60
2018-07-14 15:34:01 GMT 54.797089 -3.673182 24,975 153 264 660
2018-07-14 15:33:50 GMT 54.808876 -3.683789 24,900 156 301 660
2018-07-14 15:33:40 GMT 54.821823 -3.692828 24,775 163 278 480
2018-07-14 15:33:28 GMT 54.836636 -3.700460 24,650 167 296 360
2018-07-14 15:33:17 GMT 54.852077 -3.706344 24,525 167 297 1680
2018-07-14 15:33:07 GMT 54.865520 -3.711501 24,375 166 292 -360
2018-07-14 15:32:57 GMT 54.878536 -3.716730 24,250 167 268 420
2018-07-14 15:32:46 GMT 54.892094 -3.721932 24,100 166 302 1200
2018-07-14 15:32:35 GMT 54.907104 -3.728023 23,950 167 272 600
2018-07-14 15:32:23 GMT 54.921852 -3.733653 23,825 167 290 720
2018-07-14 15:32:13 GMT 54.935116 -3.738985 23,650 168 286 720
2018-07-14 15:32:03 GMT 54.948071 -3.743727 23,550 166 305 900
2018-07-14 15:31:53 GMT 54.961868 -3.749241 23,375 167 292 600
2018-07-14 15:31:42 GMT 54.976414 -3.754855 23,250 168 294 1380
2018-07-14 15:31:31 GMT 54.989704 -3.759886 23,075 169 310 1500
2018-07-14 15:31:20 GMT 55.005032 -3.765005 22,900 166 281 720
2018-07-14 15:31:09 GMT 55.019016 -3.770918 22,750 165 282 660
2018-07-14 15:30:58 GMT 55.032738 -3.775531 22,600 166 296 1020
2018-07-14 15:30:47 GMT 55.047325 -3.781330 22,400 165 286 600
2018-07-14 15:30:35 GMT 55.062355 -3.787103 22,275 167 285 780
2018-07-14 15:30:25 GMT 55.075260 -3.792152 22,125 166 295 780
2018-07-14 15:30:14 GMT 55.089615 -3.797933 21,925 167 267 660
2018-07-14 15:30:04 GMT 55.101669 -3.802710 21,775 167 304 1020
2018-07-14 15:29:53 GMT 55.117100 -3.809290 21,575 168 280 1200
2018-07-14 15:29:43 GMT 55.128716 -3.813044 21,425 167 281 1140
2018-07-14 15:29:33 GMT 55.141399 -3.818134 21,275 165 296 1200
2018-07-14 15:29:17 GMT 55.162083 -3.826430 21,000 167 286 2100
2018-07-14 15:29:07 GMT 55.175045 -3.831421 20,800 164 287 1020
2018-07-14 15:28:56 GMT 55.189175 -3.838174 20,600 159 284 1080
2018-07-14 15:28:46 GMT 55.201851 -3.846265 20,425 158 281 1020
2018-07-14 15:28:19 GMT 55.234680 -3.868789 19,925 158 280 720
2018-07-14 15:27:58 GMT 55.259663 -3.886578 19,550 159 310 960
2018-07-14 15:27:46 GMT 55.275162 -3.897284 19,300 159 269 1320
2018-07-14 15:27:36 GMT 55.286827 -3.905230 19,125 159 282 1216
2018-07-14 15:27:26 GMT 55.299541 -3.913447 18,925 158 277 1216
2018-07-14 15:27:15 GMT 55.321796 -3.927696 18,725 158 274 1216
2018-07-14 15:27:10 GMT 55.330315 -3.931108 18,650 156 276 1152
2018-07-14 15:27:02 GMT 55.340324 -3.937683 18,450 156 274 1216
2018-07-14 15:26:56 GMT 55.345490 -3.940596 18,325
2018-07-14 15:26:51 GMT 55.354195 -3.944924 18,200
2018-07-14 15:26:44 GMT 55.360714 -3.949668 18,100
2018-07-14 15:26:34 GMT 55.375797 -3.961903 17,900
2018-07-14 15:26:26 GMT 55.380497 -3.965898 17,700

Making use of Plane Finder data

You are free to use the raw flight data, aircraft information and images provided in this report for your own purposes provided the data is correctly attributed to Plane Finder. We ask that you please credit Plane Finder and link to planefinder.net in close proximity to the content.

Optionally one of the following logos (no smaller then 150x24px) can be used and must link to planefinder.net

Embedding the Plane Finder map

You are welcome to embed the Plane Finder playback map on your website to offer visitors a more interactive experience. We suggest using the following HTML code:

<iframe src="//planefinder.net/data/report/BE889-G-ECOD-7700-squawk-2018-07-14/map" width="800" height="600" seamless="seamless"></iframe>

Where our data comes from

Plane Finder has a global network of data feeds and antenna radars that receive data broadcast directly from aircraft. The primary technologies used are ADS-B and MLAT. We also show feeds from the FAA and a FLARM glider feed.

Click here to find out more about the Plane Finder network.

How we collect our data